createdAt,value
2023-03-05T00:01:33.582Z,16.73
2023-03-05T00:04:03.132Z,17.33
2023-03-05T00:06:32.118Z,16.83
2023-03-05T00:08:59.647Z,16.65
2023-03-05T00:11:30.313Z,17.20
2023-03-05T00:13:58.877Z,14.52
2023-03-05T00:16:27.112Z,19.10
2023-03-05T00:18:55.918Z,19.50
2023-03-05T00:21:22.635Z,18.13
2023-03-05T00:23:50.926Z,16.45
2023-03-05T00:26:20.623Z,17.25
2023-03-05T00:28:51.885Z,16.42
2023-03-05T00:31:22.594Z,20.58
2023-03-05T00:33:55.381Z,17.77
2023-03-05T00:36:22.764Z,19.90
2023-03-05T00:38:49.541Z,21.33
2023-03-05T00:41:17.388Z,15.38
2023-03-05T00:43:45.644Z,17.15
2023-03-05T00:46:12.614Z,17.65
2023-03-05T00:48:39.708Z,16.42
2023-03-05T00:51:06.947Z,20.83
2023-03-05T00:53:33.796Z,13.85
2023-03-05T00:56:00.644Z,20.98
2023-03-05T00:58:27.545Z,14.90
2023-03-05T01:00:59.648Z,20.15
2023-03-05T01:03:26.807Z,18.05
2023-03-05T01:05:53.636Z,16.52
2023-03-05T01:08:20.876Z,19.00
2023-03-05T01:10:48.018Z,18.63
2023-03-05T01:13:15.087Z,13.40
2023-03-05T01:15:42.330Z,19.50
2023-03-05T01:18:09.488Z,20.58
2023-03-05T01:20:36.942Z,16.20
2023-03-05T01:23:03.994Z,16.60
2023-03-05T01:25:30.778Z,15.23
2023-03-05T01:27:57.746Z,15.52
2023-03-05T01:30:24.857Z,19.90
2023-03-05T01:32:51.655Z,17.00
2023-03-05T01:35:23.068Z,17.02
2023-03-05T01:37:50.577Z,17.35
2023-03-05T01:40:29.868Z,17.33
2023-03-05T01:43:24.003Z,20.42
2023-03-05T01:46:31.153Z,17.00
2023-03-05T01:49:18.899Z,15.27
2023-03-05T01:51:58.404Z,19.30
2023-03-05T01:54:58.868Z,16.23
2023-03-05T01:57:32.696Z,20.27
2023-03-05T02:00:14.636Z,22.75
2023-03-05T02:02:50.218Z,16.88
2023-03-05T02:05:27.216Z,15.88
2023-03-05T02:07:59.819Z,18.30
2023-03-05T02:10:33.854Z,16.15
2023-03-05T02:13:10.358Z,13.90
2023-03-05T02:15:39.108Z,17.58
2023-03-05T02:18:08.513Z,16.75
2023-03-05T02:20:51.959Z,14.88
2023-03-05T02:23:22.790Z,15.40
2023-03-05T02:25:50.113Z,16.05
2023-03-05T02:28:45.755Z,16.83
2023-03-05T02:33:48.044Z,20.00
2023-03-05T02:36:15.332Z,17.38
2023-03-05T02:38:43.678Z,18.55
2023-03-05T02:41:11.612Z,19.02
2023-03-05T02:43:38.516Z,19.42
2023-03-05T02:46:06.127Z,17.65
2023-03-05T02:48:33.233Z,17.10
2023-03-05T02:51:01.926Z,23.27
2023-03-05T02:53:28.755Z,17.20
2023-03-05T02:55:55.583Z,16.73
2023-03-05T02:58:22.408Z,21.00
2023-03-05T03:00:49.575Z,19.50
2023-03-05T03:03:16.550Z,20.20
2023-03-05T03:05:43.477Z,21.38
2023-03-05T03:08:10.781Z,16.50
2023-03-05T03:13:04.805Z,16.25
2023-03-05T03:15:32.027Z,20.02
2023-03-05T03:17:58.939Z,17.27
2023-03-05T03:20:26.124Z,15.45
2023-03-05T03:22:53.707Z,18.65
2023-03-05T03:25:23.194Z,17.45
2023-03-05T03:27:50.180Z,17.02
2023-03-05T03:30:17.721Z,19.63
2023-03-05T03:32:44.976Z,16.77
2023-03-05T03:35:12.757Z,21.58
2023-03-05T03:37:39.883Z,17.77
2023-03-05T03:40:07.943Z,19.48
2023-03-05T03:42:34.787Z,22.50
2023-03-05T03:45:02.616Z,16.85
2023-03-05T03:47:31.016Z,18.70
2023-03-05T03:49:59.133Z,18.52
2023-03-05T03:52:26.736Z,17.38
2023-03-05T03:54:55.890Z,17.35
2023-03-05T03:57:22.844Z,17.30
2023-03-05T03:59:50.534Z,24.40
2023-03-05T04:02:17.960Z,19.52
2023-03-05T04:04:44.784Z,21.30
2023-03-05T04:07:11.801Z,17.20
2023-03-05T04:09:38.906Z,19.17
2023-03-05T04:12:06.407Z,16.13
2023-03-05T04:14:33.299Z,18.13
2023-03-05T04:17:00.313Z,14.27
2023-03-05T04:19:28.742Z,18.35
2023-03-05T04:21:55.582Z,14.80
2023-03-05T04:24:22.438Z,15.77
2023-03-05T04:26:49.546Z,15.68
2023-03-05T04:29:16.394Z,15.10
2023-03-05T04:31:43.280Z,15.43
2023-03-05T04:34:10.253Z,17.48
2023-03-05T04:36:37.266Z,14.48
2023-03-05T04:39:05.007Z,18.70
2023-03-05T04:41:31.965Z,19.65
2023-03-05T04:43:58.761Z,16.60
2023-03-05T04:46:26.120Z,21.38
2023-03-05T04:48:55.049Z,15.70
2023-03-05T04:51:22.239Z,17.85
2023-03-05T04:53:49.317Z,18.92
2023-03-05T04:56:16.435Z,16.48
2023-03-05T04:58:43.417Z,16.90
2023-03-05T05:01:10.764Z,17.90
2023-03-05T05:03:38.341Z,17.55
2023-03-05T05:06:05.535Z,18.50
2023-03-05T05:08:32.549Z,15.10
2023-03-05T05:11:06.666Z,21.13
2023-03-05T05:13:34.380Z,11.20
2023-03-05T05:16:01.353Z,12.77
2023-03-05T05:18:28.334Z,11.60
2023-03-05T05:20:55.137Z,11.77
2023-03-05T05:23:22.329Z,18.00
2023-03-05T05:26:04.286Z,11.23
2023-03-05T05:28:31.561Z,11.60
2023-03-05T05:30:58.828Z,12.18
2023-03-05T05:33:26.629Z,8.80
2023-03-05T05:35:53.657Z,12.85
2023-03-05T05:38:20.513Z,9.98
2023-03-05T05:40:47.321Z,8.48
2023-03-05T05:43:14.501Z,14.23
2023-03-05T05:45:41.551Z,11.10
2023-03-05T05:48:08.883Z,11.07
2023-03-05T05:50:35.696Z,12.32
2023-03-05T05:53:02.485Z,12.05
2023-03-05T05:55:29.305Z,14.70
2023-03-05T05:57:59.128Z,14.52
2023-03-05T06:00:26.270Z,10.55
2023-03-05T06:02:53.098Z,8.57
2023-03-05T06:05:20.006Z,9.38
2023-03-05T06:07:47.502Z,10.65
2023-03-05T06:10:14.593Z,10.70
2023-03-05T06:12:41.492Z,11.60
2023-03-05T06:15:09.137Z,11.32
2023-03-05T06:17:36.010Z,11.75
2023-03-05T06:20:04.647Z,10.70
2023-03-05T06:22:31.772Z,11.23
2023-03-05T06:24:58.573Z,14.40
2023-03-05T06:27:25.394Z,11.45
2023-03-05T06:29:54.423Z,12.90
2023-03-05T06:32:21.302Z,15.25
2023-03-05T06:34:48.579Z,10.63
2023-03-05T06:37:15.365Z,12.80
2023-03-05T06:39:42.296Z,13.18
2023-03-05T06:42:10.296Z,12.73
2023-03-05T06:44:41.368Z,14.00
2023-03-05T06:47:10.664Z,11.70
2023-03-05T06:49:38.946Z,10.43
2023-03-05T06:52:07.535Z,16.27
2023-03-05T06:54:34.842Z,13.38
2023-03-05T06:57:02.111Z,12.20
2023-03-05T06:59:29.357Z,13.13
2023-03-05T07:01:56.496Z,11.82
2023-03-05T07:04:24.524Z,12.27
2023-03-05T07:06:51.410Z,11.63
2023-03-05T07:09:18.329Z,11.13
2023-03-05T07:11:45.337Z,14.57
2023-03-05T07:14:12.501Z,13.60
2023-03-05T07:16:39.375Z,12.18
2023-03-05T07:19:07.683Z,11.30
2023-03-05T07:21:38.238Z,11.55
2023-03-05T07:24:06.832Z,9.50
2023-03-05T07:26:34.171Z,14.15
2023-03-05T07:29:02.266Z,13.70
2023-03-05T07:31:32.198Z,13.98
2023-03-05T07:34:01.709Z,12.85
2023-03-05T07:36:29.186Z,16.73
2023-03-05T07:38:56.595Z,14.07
2023-03-05T07:41:24.148Z,12.18
2023-03-05T07:43:54.101Z,10.45
2023-03-05T07:46:26.757Z,12.15
2023-03-05T07:48:57.348Z,11.98
2023-03-05T07:51:26.293Z,12.00
2023-03-05T07:53:55.801Z,12.50
2023-03-05T07:56:32.891Z,10.30
2023-03-05T07:59:01.742Z,11.13
2023-03-05T08:01:30.624Z,12.63
2023-03-05T08:03:58.037Z,12.30
2023-03-05T08:06:25.134Z,12.38
2023-03-05T08:08:51.998Z,15.98
2023-03-05T08:11:18.976Z,12.20
2023-03-05T08:13:46.343Z,13.63
2023-03-05T08:16:21.836Z,13.02
2023-03-05T08:18:49.173Z,13.50
2023-03-05T08:21:23.005Z,10.65
2023-03-05T08:23:50.316Z,16.67
2023-03-05T08:26:23.498Z,15.57
2023-03-05T08:28:51.132Z,16.55
2023-03-05T08:31:22.585Z,14.55
2023-03-05T08:33:52.506Z,13.48
2023-03-05T08:36:19.641Z,13.88
2023-03-05T08:38:48.605Z,11.68
2023-03-05T08:41:18.049Z,14.35
2023-03-05T08:43:44.960Z,14.63
2023-03-05T08:46:15.056Z,15.60
2023-03-05T08:48:42.719Z,12.90
2023-03-05T08:51:21.987Z,15.68
2023-03-05T08:53:48.860Z,15.18
2023-03-05T08:56:16.283Z,13.18
2023-03-05T08:58:43.361Z,13.65
2023-03-05T09:01:10.722Z,11.95
2023-03-05T09:03:37.768Z,13.00
2023-03-05T09:06:09.052Z,13.07
2023-03-05T09:08:36.695Z,13.82
2023-03-05T09:11:09.678Z,11.27
2023-03-05T09:13:36.950Z,10.82
2023-03-05T09:16:10.244Z,12.95
2023-03-05T09:18:37.679Z,10.32
2023-03-05T09:21:11.025Z,11.60
2023-03-05T09:23:38.117Z,10.32
2023-03-05T09:26:07.851Z,11.85
2023-03-05T09:28:34.964Z,11.07
2023-03-05T09:31:07.896Z,12.45
2023-03-05T09:33:36.385Z,10.48
2023-03-05T09:36:05.416Z,9.45
2023-03-05T09:38:32.937Z,12.00
2023-03-05T09:41:08.050Z,11.90
2023-03-05T09:44:12.520Z,11.73
2023-03-05T09:46:55.750Z,11.35
2023-03-05T09:49:57.222Z,9.73
2023-03-05T09:52:43.357Z,11.05
2023-03-05T09:55:23.564Z,12.45
2023-03-05T09:57:55.491Z,13.45
2023-03-05T10:00:51.326Z,7.65
2023-03-05T10:03:27.459Z,8.98
2023-03-05T10:06:07.505Z,8.90
2023-03-05T10:09:11.959Z,7.38
2023-03-05T10:12:01.568Z,7.00
2023-03-05T10:14:32.587Z,10.88
2023-03-05T10:17:24.229Z,7.75
2023-03-05T10:20:19.998Z,11.77
2023-03-05T10:23:08.352Z,8.93
2023-03-05T10:25:55.068Z,8.10
2023-03-05T10:28:55.658Z,6.65
2023-03-05T10:31:28.547Z,6.05
2023-03-05T10:34:33.921Z,6.82
2023-03-05T10:37:40.804Z,5.65
2023-03-05T10:40:44.958Z,7.45
2023-03-05T10:44:01.844Z,7.93
2023-03-05T10:46:38.533Z,8.30
2023-03-05T10:49:38.456Z,7.82
2023-03-05T10:52:18.170Z,5.78
2023-03-05T10:54:45.386Z,7.50
2023-03-05T10:57:12.514Z,5.55
2023-03-05T10:59:50.638Z,5.70
2023-03-05T11:02:19.661Z,6.85
2023-03-05T11:04:49.718Z,7.88
2023-03-05T11:07:16.437Z,8.20
2023-03-05T11:10:02.683Z,6.45
2023-03-05T11:12:37.857Z,5.95
2023-03-05T11:15:05.147Z,8.18
2023-03-05T11:17:45.575Z,5.63
2023-03-05T11:20:27.626Z,8.18
2023-03-05T11:23:23.736Z,7.53
2023-03-05T11:26:08.124Z,7.95
2023-03-05T11:28:55.571Z,5.50
2023-03-05T11:31:33.220Z,7.15
2023-03-05T11:34:17.153Z,6.97
2023-03-05T11:36:51.270Z,6.53
2023-03-05T11:39:22.846Z,7.17
2023-03-05T11:41:59.917Z,8.18
2023-03-05T11:44:38.340Z,6.07
2023-03-05T11:47:32.196Z,5.47
2023-03-05T11:50:32.247Z,4.38
2023-03-05T11:53:22.312Z,4.70
2023-03-05T11:55:55.080Z,6.88
2023-03-05T11:58:26.888Z,6.88
2023-03-05T12:00:54.169Z,5.97
2023-03-05T12:03:26.574Z,7.25
2023-03-05T12:06:18.067Z,4.88
2023-03-05T12:08:49.838Z,7.10
2023-03-05T12:11:26.559Z,6.28
2023-03-05T12:14:15.008Z,5.75
2023-03-05T12:16:52.987Z,6.32
2023-03-05T12:19:50.570Z,6.43
2023-03-05T12:22:35.036Z,8.73
2023-03-05T12:25:53.450Z,4.72
2023-03-05T12:28:29.370Z,6.07
2023-03-05T12:31:28.350Z,8.57
2023-03-05T12:33:55.236Z,9.85
2023-03-05T12:36:21.984Z,6.93
2023-03-05T12:38:57.593Z,6.25
2023-03-05T12:41:25.900Z,5.30
2023-03-05T12:44:06.448Z,5.45
2023-03-05T12:46:35.927Z,7.00
2023-03-05T12:49:18.191Z,5.97
2023-03-05T12:51:48.264Z,7.90
2023-03-05T12:54:31.941Z,5.47
2023-03-05T12:57:13.620Z,7.38
2023-03-05T13:00:11.338Z,5.20
2023-03-05T13:02:43.531Z,7.20
2023-03-05T13:05:35.247Z,5.22
2023-03-05T13:08:23.203Z,5.63
2023-03-05T13:11:07.169Z,7.78
2023-03-05T13:13:39.116Z,9.45
2023-03-05T13:16:07.274Z,4.45
2023-03-05T13:18:34.750Z,6.93
2023-03-05T13:21:17.749Z,4.85
2023-03-05T13:23:58.307Z,6.18
2023-03-05T13:26:27.002Z,5.25
2023-03-05T13:29:17.593Z,4.63
2023-03-05T13:31:55.704Z,3.25
2023-03-05T13:34:47.277Z,3.55
2023-03-05T13:37:21.994Z,6.10
2023-03-05T13:40:02.084Z,8.95
2023-03-05T13:42:32.873Z,6.53
2023-03-05T13:45:03.412Z,5.50
2023-03-05T13:47:34.204Z,8.55
2023-03-05T13:50:08.110Z,10.23
2023-03-05T13:52:38.308Z,9.90
2023-03-05T13:55:14.718Z,7.43
2023-03-05T13:57:50.778Z,8.57
2023-03-05T14:00:26.901Z,9.93
2023-03-05T14:02:59.531Z,5.53
2023-03-05T14:05:27.888Z,6.80
2023-03-05T14:07:56.892Z,6.97
2023-03-05T14:10:38.478Z,6.35
2023-03-05T14:13:14.626Z,6.70
2023-03-05T14:15:41.521Z,5.72
2023-03-05T14:18:11.305Z,8.98
2023-03-05T14:20:41.557Z,5.80
2023-03-05T14:23:31.300Z,3.75
2023-03-05T14:26:28.748Z,5.38
2023-03-05T14:29:13.306Z,3.55
2023-03-05T14:31:49.349Z,7.47
2023-03-05T14:34:36.048Z,6.85
2023-03-05T14:37:21.868Z,9.68
2023-03-05T14:40:05.694Z,6.28
2023-03-05T14:42:39.166Z,4.95
2023-03-05T14:45:17.406Z,6.45
2023-03-05T14:47:44.756Z,4.13
2023-03-05T14:50:19.712Z,5.05
2023-03-05T14:55:21.643Z,6.47
2023-03-05T14:57:52.423Z,8.60
2023-03-05T15:00:23.775Z,8.10
2023-03-05T15:02:54.355Z,5.88
2023-03-05T15:05:23.290Z,5.55
2023-03-05T15:07:51.648Z,4.95
2023-03-05T15:10:23.317Z,3.85
2023-03-05T15:12:51.437Z,8.02
2023-03-05T15:15:20.378Z,4.25
2023-03-05T15:17:51.877Z,5.90
2023-03-05T15:20:23.873Z,5.00
2023-03-05T15:22:50.973Z,6.32
2023-03-05T15:25:20.334Z,3.42
2023-03-05T15:27:48.193Z,7.32
2023-03-05T15:30:29.771Z,3.92
2023-03-05T15:33:00.629Z,4.40
2023-03-05T15:35:27.962Z,6.80
2023-03-05T15:37:56.878Z,5.53
2023-03-05T15:40:24.407Z,6.38
2023-03-05T15:42:52.052Z,4.13
2023-03-05T15:45:18.930Z,3.58
2023-03-05T15:47:48.142Z,5.05
2023-03-05T15:50:14.972Z,5.43
2023-03-05T15:52:41.792Z,6.05
2023-03-05T15:55:09.693Z,4.50
2023-03-05T15:57:39.324Z,5.40
2023-03-05T16:00:07.822Z,6.25
2023-03-05T16:02:34.998Z,7.07
2023-03-05T16:05:02.232Z,6.15
2023-03-05T16:07:30.907Z,6.80
2023-03-05T16:10:00.365Z,6.22
2023-03-05T16:12:38.107Z,5.90
2023-03-05T16:15:06.727Z,5.57
2023-03-05T16:17:35.075Z,6.22
2023-03-05T16:20:02.207Z,3.30
2023-03-05T16:22:29.401Z,5.38
2023-03-05T16:24:57.074Z,3.40
2023-03-05T16:27:24.107Z,3.45
2023-03-05T16:29:51.318Z,3.97
2023-03-05T16:32:18.235Z,2.92
2023-03-05T16:34:45.394Z,2.70
2023-03-05T16:37:23.010Z,4.20
2023-03-05T16:39:50.473Z,3.08
2023-03-05T16:42:17.703Z,2.25
2023-03-05T16:44:45.524Z,2.00
2023-03-05T16:47:13.055Z,1.70
2023-03-05T16:49:40.579Z,2.72
2023-03-05T16:52:18.268Z,2.65
2023-03-05T16:54:45.996Z,2.60
2023-03-05T16:57:13.062Z,2.58
2023-03-05T16:59:40.037Z,3.35
2023-03-05T17:02:08.174Z,4.18
2023-03-05T17:04:35.687Z,3.50
2023-03-05T17:07:05.225Z,2.70
2023-03-05T17:09:33.872Z,5.80
2023-03-05T17:12:01.931Z,8.73
2023-03-05T17:14:29.447Z,11.88
2023-03-05T17:16:57.325Z,20.55
2023-03-05T17:19:24.992Z,32.83
2023-03-05T17:21:52.703Z,18.23
2023-03-05T17:24:22.362Z,18.42
2023-03-05T17:26:50.220Z,16.23
2023-03-05T17:29:19.283Z,10.77
2023-03-05T17:31:46.978Z,8.75
2023-03-05T17:34:15.709Z,6.03
2023-03-05T17:36:45.410Z,5.18
2023-03-05T17:39:13.257Z,5.88
2023-03-05T17:41:40.122Z,5.03
2023-03-05T17:44:07.469Z,2.83
2023-03-05T17:46:34.322Z,4.55
2023-03-05T17:49:01.217Z,5.13
2023-03-05T17:51:28.154Z,3.75
2023-03-05T17:53:55.041Z,3.65
2023-03-05T17:56:22.317Z,3.92
2023-03-05T17:58:50.276Z,4.85
2023-03-05T18:01:29.712Z,6.40
2023-03-05T18:03:57.861Z,3.72
2023-03-05T18:06:27.095Z,2.95
2023-03-05T18:08:55.757Z,2.38
2023-03-05T18:11:24.333Z,11.18
2023-03-05T18:13:53.301Z,17.98
2023-03-05T18:16:22.468Z,25.70
2023-03-05T18:18:50.353Z,18.17
2023-03-05T18:21:23.905Z,17.52
2023-03-05T18:23:53.330Z,38.38
2023-03-05T18:26:20.509Z,42.95
2023-03-05T18:28:47.700Z,22.10
2023-03-05T18:31:14.605Z,19.45
2023-03-05T18:33:43.487Z,22.42
2023-03-05T18:36:11.932Z,19.65
2023-03-05T18:38:38.809Z,16.80
2023-03-05T18:41:06.570Z,12.77
2023-03-05T18:43:33.672Z,8.05
2023-03-05T18:46:05.065Z,11.32
2023-03-05T18:48:31.979Z,7.82
2023-03-05T18:50:58.867Z,11.70
2023-03-05T18:53:25.943Z,9.05
2023-03-05T18:55:53.518Z,7.53
2023-03-05T18:58:20.477Z,7.47
2023-03-05T19:00:48.324Z,6.97
2023-03-05T19:03:16.595Z,6.50
2023-03-05T19:05:43.888Z,6.45
2023-03-05T19:08:11.502Z,6.70
2023-03-05T19:10:39.208Z,8.00
2023-03-05T19:13:30.099Z,7.85
2023-03-05T19:15:56.944Z,8.93
2023-03-05T19:18:25.842Z,17.08
2023-03-05T19:20:56.295Z,28.35
2023-03-05T19:23:24.233Z,21.52
2023-03-05T19:25:51.071Z,18.90
2023-03-05T19:28:18.012Z,13.27
2023-03-05T19:30:46.467Z,13.90
2023-03-05T19:33:13.682Z,13.68
2023-03-05T19:35:42.293Z,10.48
2023-03-05T19:38:09.725Z,9.07
2023-03-05T19:40:36.714Z,10.80
2023-03-05T19:43:05.736Z,8.93
2023-03-05T19:45:34.546Z,11.48
2023-03-05T19:48:02.558Z,9.52
2023-03-05T19:50:29.471Z,8.82
2023-03-05T19:52:56.442Z,6.97
2023-03-05T19:55:23.274Z,9.63
2023-03-05T19:57:50.153Z,11.48
2023-03-05T20:00:18.014Z,10.82
2023-03-05T20:02:48.660Z,11.18
2023-03-05T20:05:15.749Z,8.13
2023-03-05T20:07:42.683Z,9.23
2023-03-05T20:10:10.919Z,7.60
2023-03-05T20:12:39.339Z,13.75
2023-03-05T20:15:07.015Z,11.63
2023-03-05T20:17:34.187Z,10.43
2023-03-05T20:20:02.356Z,11.30
2023-03-05T20:22:29.880Z,19.52
2023-03-05T20:24:58.367Z,11.75
2023-03-05T20:27:25.343Z,12.43
2023-03-05T20:29:52.589Z,12.32
2023-03-05T20:32:19.765Z,12.60
2023-03-05T20:34:46.730Z,14.00
2023-03-05T20:37:13.849Z,13.50
2023-03-05T20:39:40.660Z,10.68
2023-03-05T20:42:07.486Z,19.52
2023-03-05T20:44:34.306Z,30.55
2023-03-05T20:47:12.776Z,31.88
2023-03-05T20:49:40.139Z,24.45
2023-03-05T20:52:06.956Z,14.02
2023-03-05T20:54:33.930Z,15.15
2023-03-05T20:57:00.799Z,13.88
2023-03-05T20:59:27.634Z,9.80
2023-03-05T21:01:54.462Z,9.63
2023-03-05T21:04:21.309Z,8.90
2023-03-05T21:06:53.317Z,8.52
2023-03-05T21:09:20.425Z,9.95
2023-03-05T21:11:47.279Z,11.32
2023-03-05T21:14:14.204Z,14.15
2023-03-05T21:16:41.119Z,10.02
2023-03-05T21:19:07.959Z,12.88
2023-03-05T21:21:34.843Z,13.82
2023-03-05T21:24:02.034Z,11.63
2023-03-05T21:26:29.913Z,11.98
2023-03-05T21:28:58.458Z,13.95
2023-03-05T21:31:26.371Z,10.45
2023-03-05T21:33:54.577Z,11.77
2023-03-05T21:36:22.369Z,11.43
2023-03-05T21:38:50.159Z,10.55
2023-03-05T21:41:18.375Z,10.70
2023-03-05T21:43:45.701Z,12.43
2023-03-05T21:46:12.987Z,9.65
2023-03-05T21:48:40.126Z,10.20
2023-03-05T21:51:09.210Z,13.38
2023-03-05T21:53:36.673Z,12.98
2023-03-05T21:56:18.470Z,12.73
2023-03-05T21:58:47.614Z,11.25
2023-03-05T22:01:18.584Z,10.93
2023-03-05T22:03:46.302Z,10.73
2023-03-05T22:06:16.387Z,17.30
2023-03-05T22:08:43.378Z,13.93
2023-03-05T22:11:15.812Z,9.48
2023-03-05T22:13:43.218Z,10.38
2023-03-05T22:16:10.568Z,9.27
2023-03-05T22:18:37.549Z,11.07
2023-03-05T22:21:05.107Z,9.95
2023-03-05T22:23:34.674Z,10.85
2023-03-05T22:26:05.820Z,12.25
2023-03-05T22:28:34.508Z,19.25
2023-03-05T22:31:01.723Z,14.63
2023-03-05T22:33:30.935Z,11.90
2023-03-05T22:35:58.511Z,10.23
2023-03-05T22:38:26.010Z,9.95
2023-03-05T22:40:53.277Z,11.38
2023-03-05T22:43:20.893Z,10.18
2023-03-05T22:45:48.004Z,10.35
2023-03-05T22:48:15.423Z,12.20
2023-03-05T22:50:44.418Z,10.02
2023-03-05T22:53:12.508Z,14.52
2023-03-05T22:55:42.989Z,11.75
2023-03-05T22:58:10.289Z,12.73
2023-03-05T23:00:37.807Z,11.93
2023-03-05T23:03:06.530Z,9.75
2023-03-05T23:05:35.002Z,13.07
2023-03-05T23:08:02.252Z,8.85
2023-03-05T23:10:29.593Z,11.27
2023-03-05T23:12:59.357Z,12.90
2023-03-05T23:15:31.545Z,11.27
2023-03-05T23:17:58.613Z,7.85
2023-03-05T23:20:29.944Z,11.52
2023-03-05T23:22:58.144Z,9.40
2023-03-05T23:25:29.173Z,10.95
2023-03-05T23:28:00.135Z,10.07
2023-03-05T23:30:29.740Z,8.20
2023-03-05T23:33:02.394Z,9.05
2023-03-05T23:35:36.975Z,12.88
2023-03-05T23:38:16.789Z,8.60
2023-03-05T23:40:50.574Z,12.52
2023-03-05T23:43:18.709Z,9.65
2023-03-05T23:45:51.217Z,9.60
2023-03-05T23:48:18.475Z,13.98
2023-03-05T23:50:48.493Z,10.63
2023-03-05T23:53:25.906Z,8.77
2023-03-05T23:55:53.730Z,10.82
2023-03-05T23:58:20.711Z,9.30
